sensor_id;sensor_type;location;lat;lon;timestamp;pressure;altitude;pressure_sealevel;temperature;humidity
67738;BME280;54534;43.612;1.572;2023-04-23T00:01:17;98781.69;;;20.04;49.52
67738;BME280;54534;43.612;1.572;2023-04-23T00:03:43;98768.75;;;19.99;49.17
67738;BME280;54534;43.612;1.572;2023-04-23T00:06:10;98765.78;;;20.02;49.22
67738;BME280;54534;43.612;1.572;2023-04-23T00:08:39;98765.09;;;20.00;49.21
67738;BME280;54534;43.612;1.572;2023-04-23T00:11:05;98765.09;;;20.00;49.18
67738;BME280;54534;43.612;1.572;2023-04-23T00:13:31;98759.75;;;20.00;49.25
67738;BME280;54534;43.612;1.572;2023-04-23T00:15:57;98755.41;;;19.99;49.18
67738;BME280;54534;43.612;1.572;2023-04-23T00:18:22;98757.25;;;19.98;49.18
67738;BME280;54534;43.612;1.572;2023-04-23T00:20:48;98753.84;;;19.96;49.10
67738;BME280;54534;43.612;1.572;2023-04-23T00:23:13;98747.53;;;19.97;49.27
67738;BME280;54534;43.612;1.572;2023-04-23T00:25:39;98741.53;;;19.95;49.20
67738;BME280;54534;43.612;1.572;2023-04-23T00:28:04;98743.19;;;19.96;49.21
67738;BME280;54534;43.612;1.572;2023-04-23T00:30:30;98740.66;;;19.95;49.17
67738;BME280;54534;43.612;1.572;2023-04-23T00:32:55;98740.66;;;19.95;49.15
67738;BME280;54534;43.612;1.572;2023-04-23T00:35:20;98734.50;;;19.94;49.20
67738;BME280;54534;43.612;1.572;2023-04-23T00:37:46;98736.47;;;19.92;49.15
67738;BME280;54534;43.612;1.572;2023-04-23T00:40:12;98728.59;;;19.90;49.24
67738;BME280;54534;43.612;1.572;2023-04-23T00:42:39;98729.59;;;19.89;49.17
67738;BME280;54534;43.612;1.572;2023-04-23T00:45:06;98728.75;;;19.89;49.19
67738;BME280;54534;43.612;1.572;2023-04-23T00:47:33;98725.22;;;19.88;49.10
67738;BME280;54534;43.612;1.572;2023-04-23T00:49:58;98727.91;;;19.88;49.31
67738;BME280;54534;43.612;1.572;2023-04-23T00:52:24;98735.06;;;19.88;49.01
67738;BME280;54534;43.612;1.572;2023-04-23T00:54:50;98721.03;;;19.86;49.13
67738;BME280;54534;43.612;1.572;2023-04-23T00:57:15;98725.50;;;19.85;48.88
67738;BME280;54534;43.612;1.572;2023-04-23T00:59:42;98729.88;;;19.86;49.07
67738;BME280;54534;43.612;1.572;2023-04-23T01:02:07;98723.00;;;19.84;48.96
67738;BME280;54534;43.612;1.572;2023-04-23T01:04:34;98719.34;;;19.85;48.99
67738;BME280;54534;43.612;1.572;2023-04-23T01:07:01;98715.84;;;19.84;49.13
67738;BME280;54534;43.612;1.572;2023-04-23T01:09:27;98715.97;;;19.83;49.00
67738;BME280;54534;43.612;1.572;2023-04-23T01:11:54;98721.47;;;19.81;48.98
67738;BME280;54534;43.612;1.572;2023-04-23T01:14:19;98714.16;;;19.83;48.96
67738;BME280;54534;43.612;1.572;2023-04-23T01:16:45;98708.13;;;19.81;49.02
67738;BME280;54534;43.612;1.572;2023-04-23T01:19:11;98701.09;;;19.80;49.06
67738;BME280;54534;43.612;1.572;2023-04-23T01:21:38;98701.09;;;19.80;49.04
67738;BME280;54534;43.612;1.572;2023-04-23T01:24:08;98703.75;;;19.80;48.85
67738;BME280;54534;43.612;1.572;2023-04-23T01:26:34;98702.09;;;19.79;48.96
67738;BME280;54534;43.612;1.572;2023-04-23T01:29:00;98702.09;;;19.79;48.83
67738;BME280;54534;43.612;1.572;2023-04-23T01:31:26;98693.41;;;19.77;49.03
67738;BME280;54534;43.612;1.572;2023-04-23T01:33:53;98688.06;;;19.77;48.97
67738;BME280;54534;43.612;1.572;2023-04-23T01:36:21;98678.38;;;19.76;48.84
67738;BME280;54534;43.612;1.572;2023-04-23T01:38:47;98681.03;;;19.76;48.94
67738;BME280;54534;43.612;1.572;2023-04-23T01:41:13;98676.69;;;19.75;48.76
67738;BME280;54534;43.612;1.572;2023-04-23T01:43:43;98684.69;;;19.75;48.78
67738;BME280;54534;43.612;1.572;2023-04-23T01:46:08;98682.00;;;19.75;48.92
67738;BME280;54534;43.612;1.572;2023-04-23T01:48:35;98669.69;;;19.74;48.79
67738;BME280;54534;43.612;1.572;2023-04-23T01:51:01;98670.53;;;19.74;48.84
67738;BME280;54534;43.612;1.572;2023-04-23T01:53:26;98669.81;;;19.72;48.63
67738;BME280;54534;43.612;1.572;2023-04-23T01:55:53;98661.00;;;19.72;48.62
67738;BME280;54534;43.612;1.572;2023-04-23T01:58:19;98654.81;;;19.71;48.63
67738;BME280;54534;43.612;1.572;2023-04-23T02:00:45;98659.28;;;19.71;48.76
67738;BME280;54534;43.612;1.572;2023-04-23T02:03:11;98654.94;;;19.70;48.82
67738;BME280;54534;43.612;1.572;2023-04-23T02:05:39;98657.59;;;19.70;48.49
67738;BME280;54534;43.612;1.572;2023-04-23T02:08:05;98654.94;;;19.70;48.57
67738;BME280;54534;43.612;1.572;2023-04-23T02:10:32;98655.94;;;19.69;48.58
67738;BME280;54534;43.612;1.572;2023-04-23T02:12:58;98656.06;;;19.67;48.64
67738;BME280;54534;43.612;1.572;2023-04-23T02:15:23;98645.28;;;19.69;48.60
67738;BME280;54534;43.612;1.572;2023-04-23T02:17:49;98641.91;;;19.66;48.40
67738;BME280;54534;43.612;1.572;2023-04-23T02:20:18;98646.41;;;19.66;48.56
67738;BME280;54534;43.612;1.572;2023-04-23T02:22:44;98643.72;;;19.66;48.56
67738;BME280;54534;43.612;1.572;2023-04-23T02:25:11;98638.53;;;19.64;48.58
67738;BME280;54534;43.612;1.572;2023-04-23T02:27:40;98637.72;;;19.64;48.53
67738;BME280;54534;43.612;1.572;2023-04-23T02:30:06;98631.53;;;19.63;48.55
67738;BME280;54534;43.612;1.572;2023-04-23T02:32:33;98632.50;;;19.62;48.60
67738;BME280;54534;43.612;1.572;2023-04-23T02:34:58;98631.53;;;19.63;48.48
67738;BME280;54534;43.612;1.572;2023-04-23T02:37:23;98636.19;;;19.61;48.38
67738;BME280;54534;43.612;1.572;2023-04-23T02:39:49;98644.16;;;19.61;48.33
67738;BME280;54534;43.612;1.572;2023-04-23T02:42:14;98646.00;;;19.61;48.22
67738;BME280;54534;43.612;1.572;2023-04-23T02:44:39;98650.47;;;19.60;48.32
67738;BME280;54534;43.612;1.572;2023-04-23T02:47:05;98644.47;;;19.58;48.46
67738;BME280;54534;43.612;1.572;2023-04-23T02:49:30;98646.97;;;19.60;48.19
67738;BME280;54534;43.612;1.572;2023-04-23T02:51:56;98645.31;;;19.59;48.51
67738;BME280;54534;43.612;1.572;2023-04-23T02:54:21;98643.59;;;19.58;48.35
67738;BME280;54534;43.612;1.572;2023-04-23T02:56:48;98642.75;;;19.57;48.31
67738;BME280;54534;43.612;1.572;2023-04-23T02:59:13;98633.09;;;19.56;48.42
67738;BME280;54534;43.612;1.572;2023-04-23T03:01:38;98626.91;;;19.55;48.32
67738;BME280;54534;43.612;1.572;2023-04-23T03:04:04;98626.06;;;19.55;48.20
67738;BME280;54534;43.612;1.572;2023-04-23T03:06:29;98613.72;;;19.54;48.19
67738;BME280;54534;43.612;1.572;2023-04-23T03:08:56;98613.72;;;19.54;48.09
67738;BME280;54534;43.612;1.572;2023-04-23T03:11:22;98614.72;;;19.53;48.32
67738;BME280;54534;43.612;1.572;2023-04-23T03:13:47;98604.06;;;19.53;48.27
67738;BME280;54534;43.612;1.572;2023-04-23T03:16:13;98609.38;;;19.53;48.24
67738;BME280;54534;43.612;1.572;2023-04-23T03:18:39;98614.72;;;19.53;48.03
67738;BME280;54534;43.612;1.572;2023-04-23T03:21:04;98610.34;;;19.52;48.05
67738;BME280;54534;43.612;1.572;2023-04-23T03:23:30;98609.66;;;19.50;48.21
67738;BME280;54534;43.612;1.572;2023-04-23T03:25:55;98614.00;;;19.51;47.98
67738;BME280;54534;43.612;1.572;2023-04-23T03:28:20;98616.66;;;19.51;48.12
67738;BME280;54534;43.612;1.572;2023-04-23T03:30:46;98615.97;;;19.49;48.18
67738;BME280;54534;43.612;1.572;2023-04-23T03:33:11;98613.31;;;19.49;47.96
67738;BME280;54534;43.612;1.572;2023-04-23T03:35:37;98614.16;;;19.49;48.20
67738;BME280;54534;43.612;1.572;2023-04-23T03:38:02;98615.13;;;19.48;48.07
67738;BME280;54534;43.612;1.572;2023-04-23T03:40:27;98617.78;;;19.48;47.99
67738;BME280;54534;43.612;1.572;2023-04-23T03:42:53;98610.81;;;19.47;48.20
67738;BME280;54534;43.612;1.572;2023-04-23T03:45:18;98610.81;;;19.47;47.91
67738;BME280;54534;43.612;1.572;2023-04-23T03:47:44;98604.63;;;19.47;48.22
67738;BME280;54534;43.612;1.572;2023-04-23T03:50:10;98607.44;;;19.45;47.99
67738;BME280;54534;43.612;1.572;2023-04-23T03:52:37;98609.09;;;19.46;48.12
67738;BME280;54534;43.612;1.572;2023-04-23T03:55:03;98607.44;;;19.45;47.91
67738;BME280;54534;43.612;1.572;2023-04-23T03:57:28;98609.38;;;19.43;48.13
67738;BME280;54534;43.612;1.572;2023-04-23T03:59:53;98618.22;;;19.43;47.92
67738;BME280;54534;43.612;1.572;2023-04-23T04:02:19;98607.56;;;19.43;47.96
67738;BME280;54534;43.612;1.572;2023-04-23T04:04:44;98608.56;;;19.42;48.00
67738;BME280;54534;43.612;1.572;2023-04-23T04:07:11;98598.72;;;19.43;47.98
67738;BME280;54534;43.612;1.572;2023-04-23T04:09:37;98588.06;;;19.43;47.98
67738;BME280;54534;43.612;1.572;2023-04-23T04:12:03;98585.56;;;19.41;47.70
67738;BME280;54534;43.612;1.572;2023-04-23T04:14:30;98590.88;;;19.41;47.69
67738;BME280;54534;43.612;1.572;2023-04-23T04:16:55;98583.72;;;19.42;47.97
67738;BME280;54534;43.612;1.572;2023-04-23T04:19:21;98593.72;;;19.40;47.70
67738;BME280;54534;43.612;1.572;2023-04-23T04:21:47;98577.72;;;19.40;47.92
67738;BME280;54534;43.612;1.572;2023-04-23T04:24:12;98592.84;;;19.39;47.66
67738;BME280;54534;43.612;1.572;2023-04-23T04:26:38;98602.69;;;19.39;47.93
67738;BME280;54534;43.612;1.572;2023-04-23T04:29:03;98602.69;;;19.39;47.63
67738;BME280;54534;43.612;1.572;2023-04-23T04:31:29;98606.31;;;19.38;47.86
67738;BME280;54534;43.612;1.572;2023-04-23T04:33:58;98595.13;;;19.34;47.70
67738;BME280;54534;43.612;1.572;2023-04-23T04:36:23;98605.63;;;19.36;47.77
67738;BME280;54534;43.612;1.572;2023-04-23T04:38:51;98599.44;;;19.35;47.88
67738;BME280;54534;43.612;1.572;2023-04-23T04:41:18;98607.44;;;19.35;47.83
67738;BME280;54534;43.612;1.572;2023-04-23T04:43:50;98609.13;;;19.36;47.84
67738;BME280;54534;43.612;1.572;2023-04-23T04:46:16;98614.75;;;19.33;47.77
67738;BME280;54534;43.612;1.572;2023-04-23T04:48:44;98609.28;;;19.34;47.80
67738;BME280;54534;43.612;1.572;2023-04-23T04:51:09;98605.78;;;19.34;47.96
67738;BME280;54534;43.612;1.572;2023-04-23T04:53:35;98610.25;;;19.33;47.84
67738;BME280;54534;43.612;1.572;2023-04-23T04:56:00;98609.41;;;19.33;47.64
67738;BME280;54534;43.612;1.572;2023-04-23T04:58:25;98613.09;;;19.32;47.58
67738;BME280;54534;43.612;1.572;2023-04-23T05:00:51;98621.06;;;19.32;47.73
67738;BME280;54534;43.612;1.572;2023-04-23T05:03:19;98620.22;;;19.31;47.51
67738;BME280;54534;43.612;1.572;2023-04-23T05:05:45;98613.09;;;19.32;47.80
67738;BME280;54534;43.612;1.572;2023-04-23T05:08:13;98612.25;;;19.31;47.50
67738;BME280;54534;43.612;1.572;2023-04-23T05:10:41;98613.09;;;19.32;47.51
67738;BME280;54534;43.612;1.572;2023-04-23T05:13:06;98612.38;;;19.30;47.68
67738;BME280;54534;43.612;1.572;2023-04-23T05:15:32;98613.22;;;19.30;47.62
67738;BME280;54534;43.612;1.572;2023-04-23T05:17:57;98616.03;;;19.29;47.83
67738;BME280;54534;43.612;1.572;2023-04-23T05:20:22;98617.84;;;19.28;47.42
67738;BME280;54534;43.612;1.572;2023-04-23T05:22:48;98616.03;;;19.29;47.60
67738;BME280;54534;43.612;1.572;2023-04-23T05:25:13;98618.81;;;19.27;47.32
67738;BME280;54534;43.612;1.572;2023-04-23T05:27:39;98613.50;;;19.27;47.70
67738;BME280;54534;43.612;1.572;2023-04-23T05:30:09;98618.81;;;19.27;47.48
67738;BME280;54534;43.612;1.572;2023-04-23T05:32:35;98620.66;;;19.27;47.45
67738;BME280;54534;43.612;1.572;2023-04-23T05:35:01;98611.66;;;19.28;47.46
67738;BME280;54534;43.612;1.572;2023-04-23T05:37:28;98611.81;;;19.26;47.48
67738;BME280;54534;43.612;1.572;2023-04-23T05:39:54;98608.31;;;19.26;47.48
67738;BME280;54534;43.612;1.572;2023-04-23T05:42:20;98608.47;;;19.24;47.40
67738;BME280;54534;43.612;1.572;2023-04-23T05:44:46;98612.78;;;19.25;47.44
67738;BME280;54534;43.612;1.572;2023-04-23T05:47:12;98611.94;;;19.25;47.63
67738;BME280;54534;43.612;1.572;2023-04-23T05:49:38;98620.09;;;19.23;47.62
67738;BME280;54534;43.612;1.572;2023-04-23T05:52:03;98623.63;;;19.23;47.33
67738;BME280;54534;43.612;1.572;2023-04-23T05:54:29;98619.41;;;19.21;47.59
67738;BME280;54534;43.612;1.572;2023-04-23T05:56:54;98620.25;;;19.21;47.37
67738;BME280;54534;43.612;1.572;2023-04-23T05:59:20;98628.25;;;19.21;47.51
67738;BME280;54534;43.612;1.572;2023-04-23T06:01:47;98628.09;;;19.23;47.57
67738;BME280;54534;43.612;1.572;2023-04-23T06:04:13;98630.91;;;19.21;47.37
67738;BME280;54534;43.612;1.572;2023-04-23T06:06:38;98634.56;;;19.20;47.60
67738;BME280;54534;43.612;1.572;2023-04-23T06:09:04;98629.22;;;19.20;47.60
67738;BME280;54534;43.612;1.572;2023-04-23T06:11:30;98629.47;;;19.17;47.69
67738;BME280;54534;43.612;1.572;2023-04-23T06:14:00;98640.84;;;19.19;47.32
67738;BME280;54534;43.612;1.572;2023-04-23T06:16:26;98637.22;;;19.20;47.59
67738;BME280;54534;43.612;1.572;2023-04-23T06:18:51;98634.56;;;19.20;47.49
67738;BME280;54534;43.612;1.572;2023-04-23T06:21:17;98633.84;;;19.18;47.44
67738;BME280;54534;43.612;1.572;2023-04-23T06:23:42;98640.03;;;19.19;47.54
67738;BME280;54534;43.612;1.572;2023-04-23T06:26:08;98644.53;;;19.18;47.68
67738;BME280;54534;43.612;1.572;2023-04-23T06:28:33;98639.19;;;19.18;47.89
67738;BME280;54534;43.612;1.572;2023-04-23T06:30:58;98644.53;;;19.18;47.56
67738;BME280;54534;43.612;1.572;2023-04-23T06:33:24;98639.19;;;19.18;47.80
67738;BME280;54534;43.612;1.572;2023-04-23T06:35:49;98643.63;;;19.18;47.63
67738;BME280;54534;43.612;1.572;2023-04-23T06:38:15;98637.47;;;19.17;47.86
67738;BME280;54534;43.612;1.572;2023-04-23T06:40:42;98638.31;;;19.18;47.74
67738;BME280;54534;43.612;1.572;2023-04-23T06:43:08;98639.19;;;19.18;47.80
67738;BME280;54534;43.612;1.572;2023-04-23T06:45:34;98635.81;;;19.16;47.92
67738;BME280;54534;43.612;1.572;2023-04-23T06:47:59;98639.28;;;19.17;47.86
67738;BME280;54534;43.612;1.572;2023-04-23T06:50:25;98640.13;;;19.17;47.99
67738;BME280;54534;43.612;1.572;2023-04-23T06:52:51;98645.47;;;19.17;47.79
67738;BME280;54534;43.612;1.572;2023-04-23T06:55:17;98634.81;;;19.17;48.08
67738;BME280;54534;43.612;1.572;2023-04-23T06:57:43;98640.13;;;19.17;48.08
67738;BME280;54534;43.612;1.572;2023-04-23T07:00:09;98639.28;;;19.17;47.93
67738;BME280;54534;43.612;1.572;2023-04-23T07:02:37;98641.94;;;19.17;47.64
67738;BME280;54534;43.612;1.572;2023-04-23T07:05:03;98645.47;;;19.17;47.85
67738;BME280;54534;43.612;1.572;2023-04-23T07:07:29;98642.78;;;19.17;47.89
67738;BME280;54534;43.612;1.572;2023-04-23T07:09:54;98640.97;;;19.18;47.73
67738;BME280;54534;43.612;1.572;2023-04-23T07:12:19;98646.47;;;19.16;47.69
67738;BME280;54534;43.612;1.572;2023-04-23T07:14:45;98644.53;;;19.18;48.17
67738;BME280;54534;43.612;1.572;2023-04-23T07:17:10;98658.53;;;19.20;48.15
67738;BME280;54534;43.612;1.572;2023-04-23T07:19:36;98655.88;;;19.20;47.91
67738;BME280;54534;43.612;1.572;2023-04-23T07:22:02;98654.91;;;19.21;48.00
67738;BME280;54534;43.612;1.572;2023-04-23T07:24:28;98650.38;;;19.22;47.97
67738;BME280;54534;43.612;1.572;2023-04-23T07:26:53;98647.19;;;19.18;47.79
67738;BME280;54534;43.612;1.572;2023-04-23T07:29:19;98647.72;;;19.22;47.98
67738;BME280;54534;43.612;1.572;2023-04-23T07:31:44;98646.91;;;19.21;47.97
67738;BME280;54534;43.612;1.572;2023-04-23T07:34:10;98648.56;;;19.22;47.83
67738;BME280;54534;43.612;1.572;2023-04-23T07:36:36;98644.94;;;19.23;47.83
67738;BME280;54534;43.612;1.572;2023-04-23T07:39:01;98640.56;;;19.22;47.81
67738;BME280;54534;43.612;1.572;2023-04-23T07:41:27;98638.75;;;19.23;47.72
67738;BME280;54534;43.612;1.572;2023-04-23T07:43:52;98641.41;;;19.23;47.70
67738;BME280;54534;43.612;1.572;2023-04-23T07:46:18;98642.28;;;19.23;47.57
67738;BME280;54534;43.612;1.572;2023-04-23T07:48:44;98642.28;;;19.23;47.94
67738;BME280;54534;43.612;1.572;2023-04-23T07:51:09;98642.38;;;19.22;48.03
67738;BME280;54534;43.612;1.572;2023-04-23T07:53:35;98631.59;;;19.23;47.94
67738;BME280;54534;43.612;1.572;2023-04-23T07:56:00;98628.94;;;19.23;47.78
67738;BME280;54534;43.612;1.572;2023-04-23T07:58:26;98625.59;;;19.21;47.96
67738;BME280;54534;43.612;1.572;2023-04-23T08:00:51;98630.91;;;19.21;47.72
67738;BME280;54534;43.612;1.572;2023-04-23T08:03:16;98633.59;;;19.21;47.89
67738;BME280;54534;43.612;1.572;2023-04-23T08:05:42;98639.88;;;19.20;47.82
67738;BME280;54534;43.612;1.572;2023-04-23T08:08:09;98627.53;;;19.19;47.59
67738;BME280;54534;43.612;1.572;2023-04-23T08:10:35;98626.72;;;19.19;47.74
67738;BME280;54534;43.612;1.572;2023-04-23T08:13:01;98633.84;;;19.18;47.77
67738;BME280;54534;43.612;1.572;2023-04-23T08:15:26;98632.13;;;19.17;47.60
67738;BME280;54534;43.612;1.572;2023-04-23T08:17:52;98633.94;;;19.17;47.61
67738;BME280;54534;43.612;1.572;2023-04-23T08:20:17;98631.28;;;19.17;47.50
67738;BME280;54534;43.612;1.572;2023-04-23T08:22:43;98629.63;;;19.16;47.64
67738;BME280;54534;43.612;1.572;2023-04-23T08:25:09;98629.75;;;19.14;47.77
67738;BME280;54534;43.612;1.572;2023-04-23T08:27:34;98632.41;;;19.14;47.66
67738;BME280;54534;43.612;1.572;2023-04-23T08:30:00;98637.75;;;19.14;47.75
67738;BME280;54534;43.612;1.572;2023-04-23T08:32:26;98628.09;;;19.13;47.69
67738;BME280;54534;43.612;1.572;2023-04-23T08:34:52;98624.56;;;19.12;47.56
67738;BME280;54534;43.612;1.572;2023-04-23T08:37:17;98637.03;;;19.12;47.49
67738;BME280;54534;43.612;1.572;2023-04-23T08:39:42;98622.88;;;19.11;47.70
67738;BME280;54534;43.612;1.572;2023-04-23T08:42:37;98639.72;;;19.12;47.62
67738;BME280;54534;43.612;1.572;2023-04-23T08:45:07;98631.88;;;19.10;47.68
67738;BME280;54534;43.612;1.572;2023-04-23T08:47:32;98629.22;;;19.10;47.49
67738;BME280;54534;43.612;1.572;2023-04-23T08:49:59;98639.00;;;19.10;47.79
67738;BME280;54534;43.612;1.572;2023-04-23T08:52:28;98628.34;;;19.10;47.74
67738;BME280;54534;43.612;1.572;2023-04-23T08:55:00;98624.84;;;19.09;47.75
67738;BME280;54534;43.612;1.572;2023-04-23T08:57:29;98628.47;;;19.08;47.52
67738;BME280;54534;43.612;1.572;2023-04-23T08:59:55;98633.00;;;19.08;47.80
67738;BME280;54534;43.612;1.572;2023-04-23T09:02:21;98627.66;;;19.08;47.88
67738;BME280;54534;43.612;1.572;2023-04-23T09:04:47;98628.47;;;19.08;47.40
67738;BME280;54534;43.612;1.572;2023-04-23T09:07:13;98622.34;;;19.08;47.71
67738;BME280;54534;43.612;1.572;2023-04-23T09:09:39;98627.66;;;19.08;47.66
67738;BME280;54534;43.612;1.572;2023-04-23T09:12:06;98639.28;;;19.07;47.75
67738;BME280;54534;43.612;1.572;2023-04-23T09:14:33;98623.16;;;19.08;47.63
67738;BME280;54534;43.612;1.572;2023-04-23T09:16:59;98634.81;;;19.07;47.78
67738;BME280;54534;43.612;1.572;2023-04-23T09:19:25;98637.47;;;19.07;47.81
67738;BME280;54534;43.612;1.572;2023-04-23T09:21:58;98642.94;;;19.06;47.83
67738;BME280;54534;43.612;1.572;2023-04-23T09:24:26;98634.81;;;19.07;47.54
67738;BME280;54534;43.612;1.572;2023-04-23T09:26:52;98649.94;;;19.07;47.71
67738;BME280;54534;43.612;1.572;2023-04-23T09:29:21;98641.97;;;19.07;47.77
67738;BME280;54534;43.612;1.572;2023-04-23T09:32:07;98648.13;;;19.07;47.48
67738;BME280;54534;43.612;1.572;2023-04-23T09:34:34;98650.81;;;19.07;47.40
67738;BME280;54534;43.612;1.572;2023-04-23T09:37:02;98656.97;;;19.08;47.45
67738;BME280;54534;43.612;1.572;2023-04-23T09:39:32;98657.94;;;19.07;47.42
67738;BME280;54534;43.612;1.572;2023-04-23T09:42:04;98651.66;;;19.08;47.36
67738;BME280;54534;43.612;1.572;2023-04-23T09:44:33;98651.66;;;19.08;47.61
67738;BME280;54534;43.612;1.572;2023-04-23T09:47:08;98650.81;;;19.07;47.67
67738;BME280;54534;43.612;1.572;2023-04-23T09:49:47;98653.31;;;19.09;47.52
67738;BME280;54534;43.612;1.572;2023-04-23T09:52:12;98641.00;;;19.08;47.43
67738;BME280;54534;43.612;1.572;2023-04-23T09:54:38;98648.97;;;19.08;47.84
67738;BME280;54534;43.612;1.572;2023-04-23T09:57:04;98642.66;;;19.09;47.81
67738;BME280;54534;43.612;1.572;2023-04-23T09:59:33;98647.97;;;19.09;47.53
67738;BME280;54534;43.612;1.572;2023-04-23T10:02:01;98644.47;;;19.08;47.77
67738;BME280;54534;43.612;1.572;2023-04-23T10:04:27;98645.19;;;19.10;47.53
67738;BME280;54534;43.612;1.572;2023-04-23T10:06:56;98654.00;;;19.11;47.59
67738;BME280;54534;43.612;1.572;2023-04-23T10:09:23;98646.16;;;19.09;47.80
67738;BME280;54534;43.612;1.572;2023-04-23T10:11:59;98642.38;;;19.12;47.78
67738;BME280;54534;43.612;1.572;2023-04-23T10:14:26;98646.00;;;19.11;47.63
67738;BME280;54534;43.612;1.572;2023-04-23T10:17:00;98658.38;;;19.12;47.55
67738;BME280;54534;43.612;1.572;2023-04-23T10:19:27;98666.34;;;19.12;47.77
67738;BME280;54534;43.612;1.572;2023-04-23T10:24:25;98670.72;;;19.13;47.77
67738;BME280;54534;43.612;1.572;2023-04-23T10:26:59;98665.22;;;19.15;47.42
67738;BME280;54534;43.612;1.572;2023-04-23T10:29:29;98672.38;;;19.14;47.43
67738;BME280;54534;43.612;1.572;2023-04-23T10:31:56;98673.38;;;19.13;47.66
67738;BME280;54534;43.612;1.572;2023-04-23T10:34:23;98676.75;;;19.15;47.75
67738;BME280;54534;43.612;1.572;2023-04-23T10:36:50;98678.56;;;19.15;47.70
67738;BME280;54534;43.612;1.572;2023-04-23T10:39:16;98676.75;;;19.15;47.71
67738;BME280;54534;43.612;1.572;2023-04-23T10:41:43;98675.78;;;19.16;47.65
67738;BME280;54534;43.612;1.572;2023-04-23T10:44:12;98679.25;;;19.17;48.07
67738;BME280;54534;43.612;1.572;2023-04-23T10:46:53;98683.50;;;19.19;48.02
67738;BME280;54534;43.612;1.572;2023-04-23T10:49:21;98682.38;;;19.22;48.11
67738;BME280;54534;43.612;1.572;2023-04-23T10:51:47;98683.22;;;19.22;47.95
67738;BME280;54534;43.612;1.572;2023-04-23T10:54:13;98688.41;;;19.24;47.91
67738;BME280;54534;43.612;1.572;2023-04-23T10:56:40;98700.63;;;19.27;48.01
67738;BME280;54534;43.612;1.572;2023-04-23T10:59:07;98702.44;;;19.26;47.32
67738;BME280;54534;43.612;1.572;2023-04-23T11:01:33;98704.09;;;19.27;47.77
67738;BME280;54534;43.612;1.572;2023-04-23T11:04:18;98706.78;;;19.27;47.80
67738;BME280;54534;43.612;1.572;2023-04-23T11:11:57;98731.50;;;19.29;47.85
67738;BME280;54534;43.612;1.572;2023-04-23T11:16:59;98739.34;;;19.31;47.67
67738;BME280;54534;43.612;1.572;2023-04-23T11:19:24;98750.00;;;19.31;47.73
67738;BME280;54534;43.612;1.572;2023-04-23T11:22:15;98746.38;;;19.32;47.73
67738;BME280;54534;43.612;1.572;2023-04-23T11:24:44;98750.00;;;19.31;47.98
67738;BME280;54534;43.612;1.572;2023-04-23T11:27:15;98749.84;;;19.32;47.97
67738;BME280;54534;43.612;1.572;2023-04-23T11:29:43;98748.03;;;19.33;47.70
67738;BME280;54534;43.612;1.572;2023-04-23T11:32:09;98744.50;;;19.32;47.79
67738;BME280;54534;43.612;1.572;2023-04-23T11:34:36;98748.88;;;19.33;47.74
67738;BME280;54534;43.612;1.572;2023-04-23T11:37:03;98748.03;;;19.33;47.77
67738;BME280;54534;43.612;1.572;2023-04-23T11:39:29;98765.72;;;19.34;47.99
67738;BME280;54534;43.612;1.572;2023-04-23T11:41:54;98778.19;;;19.33;47.91
67738;BME280;54534;43.612;1.572;2023-04-23T11:44:21;98767.38;;;19.35;47.66
67738;BME280;54534;43.612;1.572;2023-04-23T11:46:48;98794.03;;;19.35;47.66
67738;BME280;54534;43.612;1.572;2023-04-23T11:49:14;98808.38;;;19.34;47.63
67738;BME280;54534;43.612;1.572;2023-04-23T11:51:41;98815.38;;;19.35;47.81
67738;BME280;54534;43.612;1.572;2023-04-23T11:54:08;98826.03;;;19.35;47.77
67738;BME280;54534;43.612;1.572;2023-04-23T11:56:33;98824.22;;;19.36;47.83
67738;BME280;54534;43.612;1.572;2023-04-23T11:59:03;98831.25;;;19.37;47.83
67738;BME280;54534;43.612;1.572;2023-04-23T12:01:42;98833.06;;;19.36;47.78
67738;BME280;54534;43.612;1.572;2023-04-23T12:04:17;98848.91;;;19.38;47.76
67738;BME280;54534;43.612;1.572;2023-04-23T12:06:44;98849.06;;;19.36;47.82
67738;BME280;54534;43.612;1.572;2023-04-23T12:09:11;98845.41;;;19.37;47.56
67738;BME280;54534;43.612;1.572;2023-04-23T12:11:38;98858.75;;;19.37;47.69
67738;BME280;54534;43.612;1.572;2023-04-23T12:14:03;98864.06;;;19.37;47.91
67738;BME280;54534;43.612;1.572;2023-04-23T12:16:33;98865.03;;;19.36;47.98
67738;BME280;54534;43.612;1.572;2023-04-23T12:18:59;98872.06;;;19.37;47.83
67738;BME280;54534;43.612;1.572;2023-04-23T12:21:25;98871.22;;;19.37;47.87
67738;BME280;54534;43.612;1.572;2023-04-23T12:23:52;98874.75;;;19.37;47.87
67738;BME280;54534;43.612;1.572;2023-04-23T12:26:18;98879.22;;;19.37;47.69
67738;BME280;54534;43.612;1.572;2023-04-23T12:28:55;98883.56;;;19.38;47.83
67738;BME280;54534;43.612;1.572;2023-04-23T12:31:27;98881.88;;;19.37;47.77
67738;BME280;54534;43.612;1.572;2023-04-23T12:34:12;98881.75;;;19.38;47.92
67738;BME280;54534;43.612;1.572;2023-04-23T12:36:52;98882.75;;;19.37;48.04
67738;BME280;54534;43.612;1.572;2023-04-23T12:39:30;98882.75;;;19.37;47.85
67738;BME280;54534;43.612;1.572;2023-04-23T12:42:06;98884.41;;;19.38;47.86
67738;BME280;54534;43.612;1.572;2023-04-23T12:44:35;98883.72;;;19.36;47.69
67738;BME280;54534;43.612;1.572;2023-04-23T12:47:07;98889.88;;;19.37;47.87
67738;BME280;54534;43.612;1.572;2023-04-23T12:49:34;98903.22;;;19.37;48.09
67738;BME280;54534;43.612;1.572;2023-04-23T12:52:01;98900.66;;;19.35;48.10
67738;BME280;54534;43.612;1.572;2023-04-23T12:54:30;98912.19;;;19.36;48.31
67738;BME280;54534;43.612;1.572;2023-04-23T12:56:59;98915.00;;;19.34;48.29
67738;BME280;54534;43.612;1.572;2023-04-23T12:59:29;98922.28;;;19.32;48.39
67738;BME280;54534;43.612;1.572;2023-04-23T13:01:54;98921.44;;;19.31;48.64
67738;BME280;54534;43.612;1.572;2023-04-23T13:04:20;98910.91;;;19.30;48.65
67738;BME280;54534;43.612;1.572;2023-04-23T13:06:45;98902.09;;;19.29;48.71
67738;BME280;54534;43.612;1.572;2023-04-23T13:09:11;98891.28;;;19.31;48.64